createdAt,value
2018-06-09T00:00:08.828Z,57.87
2018-06-09T00:02:37.907Z,65.60
2018-06-09T00:05:06.721Z,59.95
2018-06-09T00:07:36.614Z,73.70
2018-06-09T00:10:05.980Z,70.13
2018-06-09T00:12:35.115Z,67.30
2018-06-09T00:15:04.361Z,65.50
2018-06-09T00:17:33.571Z,75.77
2018-06-09T00:20:02.648Z,61.17
2018-06-09T00:22:31.651Z,71.25
2018-06-09T00:25:01.506Z,68.50
2018-06-09T00:27:31.067Z,72.30
2018-06-09T00:29:59.595Z,54.80
2018-06-09T00:32:28.577Z,69.20
2018-06-09T00:34:58.382Z,58.25
2018-06-09T00:37:27.262Z,65.40
2018-06-09T00:39:56.451Z,69.15
2018-06-09T00:42:25.653Z,71.00
2018-06-09T00:44:54.953Z,66.70
2018-06-09T00:47:24.527Z,64.75
2018-06-09T00:49:53.681Z,53.50
2018-06-09T00:52:22.844Z,61.20
2018-06-09T00:54:53.058Z,59.75
2018-06-09T00:57:22.160Z,60.80
2018-06-09T00:59:51.014Z,61.13
2018-06-09T01:02:20.300Z,65.80
2018-06-09T01:04:49.261Z,58.73
2018-06-09T01:07:18.418Z,60.40
2018-06-09T01:09:47.455Z,61.85
2018-06-09T01:12:16.529Z,67.05
2018-06-09T01:14:47.186Z,60.65
2018-06-09T01:17:17.079Z,65.05
2018-06-09T01:19:45.741Z,62.60
2018-06-09T01:22:16.759Z,68.40
2018-06-09T01:24:45.831Z,70.90
2018-06-09T01:27:14.824Z,61.20
2018-06-09T01:29:43.784Z,73.40
2018-06-09T01:32:13.036Z,68.60
2018-06-09T01:34:42.307Z,65.90
2018-06-09T01:37:11.067Z,64.90
2018-06-09T01:39:40.294Z,69.87
2018-06-09T01:42:09.914Z,72.80
2018-06-09T01:44:38.895Z,74.70
2018-06-09T01:47:07.994Z,80.60
2018-06-09T01:49:37.057Z,74.60
2018-06-09T01:52:06.123Z,78.15
2018-06-09T01:54:35.175Z,72.15
2018-06-09T01:57:03.831Z,76.60
2018-06-09T01:59:32.933Z,83.20
2018-06-09T02:02:01.764Z,84.90
2018-06-09T02:04:30.816Z,84.45
2018-06-09T02:06:59.847Z,84.35
2018-06-09T02:09:28.783Z,81.00
2018-06-09T02:11:57.870Z,87.60
2018-06-09T02:14:26.746Z,77.20
2018-06-09T02:16:55.971Z,90.00
2018-06-09T02:19:24.912Z,80.70
2018-06-09T02:21:54.483Z,88.60
2018-06-09T02:24:24.084Z,93.20
2018-06-09T02:26:53.121Z,88.40
2018-06-09T02:29:22.075Z,84.50
2018-06-09T02:31:50.803Z,87.40
2018-06-09T02:34:19.693Z,91.20
2018-06-09T02:36:48.791Z,90.10
2018-06-09T02:39:18.159Z,83.80
2018-06-09T02:41:47.290Z,91.20
2018-06-09T02:44:16.423Z,84.90
2018-06-09T02:49:13.587Z,90.50
2018-06-09T02:51:42.342Z,91.90
2018-06-09T02:54:11.253Z,96.00
2018-06-09T02:56:41.152Z,87.70
2018-06-09T02:59:10.092Z,107.20
2018-06-09T03:01:39.364Z,103.50
2018-06-09T03:04:09.578Z,112.40
2018-06-09T03:26:24.999Z,114.10
2018-06-09T03:31:22.123Z,113.20
2018-06-09T03:33:51.250Z,110.50
2018-06-09T03:51:08.953Z,118.90
2018-06-09T03:56:06.120Z,135.30
2018-06-09T03:58:35.127Z,124.30
2018-06-09T04:01:04.282Z,117.80
2018-06-09T04:03:33.115Z,138.90
2018-06-09T04:06:02.019Z,126.10
2018-06-09T04:08:30.814Z,118.90
2018-06-09T04:15:56.850Z,125.60
2018-06-09T04:18:25.760Z,120.65
2018-06-09T04:20:55.400Z,118.05
2018-06-09T04:28:21.334Z,107.10
2018-06-09T04:30:50.238Z,109.50
2018-06-09T04:33:19.218Z,114.00
2018-06-09T04:45:42.153Z,103.20
2018-06-09T04:48:10.981Z,98.15
2018-06-09T04:50:40.018Z,109.63
2018-06-09T04:53:09.154Z,103.40
2018-06-09T04:55:38.014Z,89.40
2018-06-09T04:58:07.330Z,82.90
2018-06-09T05:00:36.331Z,91.05
2018-06-09T05:03:05.416Z,86.63
2018-06-09T05:05:34.494Z,80.53
2018-06-09T05:08:03.498Z,80.20
2018-06-09T05:10:32.672Z,80.30
2018-06-09T05:40:20.633Z,69.70
2018-06-09T05:50:16.358Z,63.10
2018-06-09T05:52:46.038Z,75.30
2018-06-09T05:55:15.070Z,63.50
2018-06-09T06:02:40.852Z,63.75
2018-06-09T06:07:38.409Z,76.25
2018-06-09T06:10:07.496Z,76.40
2018-06-09T06:12:36.924Z,75.00
2018-06-09T06:15:06.126Z,72.10
2018-06-09T06:17:38.611Z,70.60
2018-06-09T06:25:07.945Z,78.20
2018-06-09T06:27:37.358Z,79.70
2018-06-09T06:30:06.852Z,65.10
2018-06-09T06:32:36.400Z,61.15
2018-06-09T06:35:05.647Z,64.10
2018-06-09T06:37:35.770Z,59.10
2018-06-09T06:40:04.929Z,58.55
2018-06-09T06:42:34.320Z,91.65
2018-06-09T06:45:03.652Z,73.70
2018-06-09T06:47:32.806Z,56.80
2018-06-09T06:50:05.515Z,58.50
2018-06-09T06:52:34.420Z,60.65
2018-06-09T06:55:03.400Z,59.50
2018-06-09T06:57:32.242Z,54.80
2018-06-09T07:00:00.787Z,57.90
2018-06-09T07:02:29.830Z,62.30
2018-06-09T07:04:58.938Z,59.85
2018-06-09T07:07:27.972Z,54.37
2018-06-09T07:09:57.280Z,49.20
2018-06-09T07:12:26.447Z,60.55
2018-06-09T07:15:00.213Z,57.33
2018-06-09T07:17:30.628Z,51.50
2018-06-09T07:20:00.173Z,63.73
2018-06-09T07:22:29.422Z,56.83
2018-06-09T07:24:58.654Z,59.70
2018-06-09T07:27:27.682Z,56.10
2018-06-09T07:29:57.743Z,62.45
2018-06-09T07:32:27.050Z,54.50
2018-06-09T07:34:56.317Z,58.27
2018-06-09T07:37:25.248Z,51.60
2018-06-09T07:39:54.178Z,55.00
2018-06-09T07:42:23.438Z,58.55
2018-06-09T07:44:52.851Z,53.70
2018-06-09T07:47:22.074Z,56.55
2018-06-09T07:49:51.360Z,56.00
2018-06-09T07:52:20.617Z,60.80
2018-06-09T07:54:49.959Z,56.37
2018-06-09T07:57:19.220Z,56.00
2018-06-09T07:59:48.204Z,54.77
2018-06-09T08:02:17.683Z,53.17
2018-06-09T08:04:46.951Z,52.80
2018-06-09T08:07:17.369Z,64.60
2018-06-09T08:09:47.629Z,65.83
2018-06-09T08:12:17.299Z,57.50
2018-06-09T08:14:47.477Z,57.40
2018-06-09T08:17:16.826Z,61.90
2018-06-09T08:19:45.566Z,57.43
2018-06-09T08:22:15.826Z,65.33
2018-06-09T08:24:45.577Z,57.00
2018-06-09T08:27:14.488Z,62.97
2018-06-09T08:29:44.336Z,56.93
2018-06-09T08:32:15.641Z,57.97
2018-06-09T08:34:45.618Z,58.17
2018-06-09T08:37:15.711Z,58.83
2018-06-09T08:39:45.757Z,58.50
2018-06-09T08:42:16.903Z,59.30
2018-06-09T08:44:46.288Z,59.43
2018-06-09T08:47:16.117Z,74.00
2018-06-09T08:49:45.856Z,60.67
2018-06-09T08:52:15.548Z,69.70
2018-06-09T08:54:45.392Z,60.10
2018-06-09T08:57:15.780Z,60.27
2018-06-09T08:59:45.388Z,60.13
2018-06-09T09:02:17.083Z,58.27
2018-06-09T09:04:46.078Z,58.00
2018-06-09T09:07:15.918Z,55.50
2018-06-09T09:09:51.805Z,55.07
2018-06-09T09:12:21.791Z,55.17
2018-06-09T09:14:51.464Z,53.60
2018-06-09T09:17:21.758Z,50.30
2018-06-09T09:19:51.333Z,51.50
2018-06-09T09:22:23.698Z,59.13
2018-06-09T09:24:53.427Z,63.27
2018-06-09T09:27:22.905Z,60.30
2018-06-09T09:29:53.288Z,61.07
2018-06-09T09:35:38.565Z,67.67
2018-06-09T09:43:33.408Z,71.50
2018-06-09T09:46:10.170Z,65.83
2018-06-09T09:48:49.067Z,66.40
2018-06-09T09:51:25.811Z,71.70
2018-06-09T09:54:03.350Z,71.37
2018-06-09T09:56:37.404Z,70.30
2018-06-09T09:59:22.614Z,69.40
2018-06-09T10:02:04.643Z,70.40
2018-06-09T10:04:42.181Z,74.27
2018-06-09T10:07:13.185Z,79.75
2018-06-09T10:09:44.974Z,82.00
2018-06-09T10:12:22.203Z,83.63
2018-06-09T10:17:43.356Z,77.40
2018-06-09T10:20:21.236Z,77.27
2018-06-09T10:23:07.401Z,71.63
2018-06-09T10:25:40.318Z,72.53
2018-06-09T10:28:15.957Z,77.47
2018-06-09T10:30:58.240Z,77.53
2018-06-09T10:33:35.530Z,65.93
2018-06-09T10:36:12.200Z,62.67
2018-06-09T10:38:48.117Z,61.20
2018-06-09T10:41:26.690Z,58.20
2018-06-09T10:44:04.238Z,57.10
2018-06-09T10:46:39.346Z,59.40
2018-06-09T10:49:09.960Z,53.00
2018-06-09T10:51:39.284Z,54.87
2018-06-09T10:54:08.772Z,59.47
2018-06-09T10:56:38.826Z,55.00
2018-06-09T10:59:07.710Z,66.07
2018-06-09T11:01:36.690Z,60.83
2018-06-09T11:04:06.009Z,66.33
2018-06-09T11:06:35.137Z,68.37
2018-06-09T11:09:06.100Z,72.40
2018-06-09T11:11:35.224Z,62.23
2018-06-09T11:14:05.087Z,66.83
2018-06-09T11:16:38.205Z,59.83
2018-06-09T11:19:08.056Z,62.30
2018-06-09T11:21:38.231Z,55.10
2018-06-09T11:24:07.816Z,53.47
2018-06-09T11:26:37.417Z,56.17
2018-06-09T11:29:07.579Z,55.20
2018-06-09T11:31:37.117Z,63.13
2018-06-09T11:34:06.746Z,67.90
2018-06-09T11:36:36.366Z,66.00
2018-06-09T11:39:08.553Z,64.13
2018-06-09T11:41:38.437Z,60.40
2018-06-09T11:44:08.719Z,63.90
2018-06-09T11:46:37.966Z,65.90
2018-06-09T11:49:07.996Z,64.15
2018-06-09T11:51:37.259Z,65.40
2018-06-09T11:54:07.866Z,62.53
2018-06-09T11:56:37.761Z,58.73
2018-06-09T11:59:07.249Z,59.80
2018-06-09T12:01:39.133Z,66.57
2018-06-09T12:04:08.861Z,62.27
2018-06-09T12:06:37.943Z,63.70
2018-06-09T12:09:12.327Z,61.50
2018-06-09T12:14:23.087Z,65.10
2018-06-09T12:16:52.892Z,64.50
2018-06-09T12:19:22.330Z,67.90
2018-06-09T12:21:51.260Z,67.77
2018-06-09T12:24:22.345Z,68.67
2018-06-09T12:26:53.114Z,69.40
2018-06-09T12:29:23.197Z,64.30
2018-06-09T12:31:58.610Z,60.53
2018-06-09T12:34:28.229Z,56.43
2018-06-09T12:36:57.746Z,56.30
2018-06-09T12:39:28.690Z,54.30
2018-06-09T12:41:59.722Z,60.73
2018-06-09T12:44:29.768Z,61.50
2018-06-09T12:47:02.108Z,59.50
2018-06-09T12:49:31.624Z,55.63
2018-06-09T12:52:01.291Z,55.73
2018-06-09T12:54:32.447Z,60.17
2018-06-09T12:57:04.752Z,57.40
2018-06-09T12:59:36.053Z,58.27
2018-06-09T13:02:08.563Z,57.63
2018-06-09T13:04:43.550Z,53.57
2018-06-09T13:07:13.404Z,63.93
2018-06-09T13:09:42.927Z,60.00
2018-06-09T13:12:20.966Z,60.40
2018-06-09T13:14:51.712Z,54.00
2018-06-09T13:17:21.886Z,54.53
2018-06-09T13:19:52.942Z,54.53
2018-06-09T13:22:22.686Z,56.47
2018-06-09T13:24:52.307Z,55.03
2018-06-09T13:27:24.586Z,55.80
2018-06-09T13:29:57.149Z,52.23
2018-06-09T13:32:34.325Z,56.80
2018-06-09T13:35:14.612Z,53.10
2018-06-09T13:37:49.372Z,55.03
2018-06-09T13:40:21.122Z,51.80
2018-06-09T13:42:50.952Z,53.83
2018-06-09T13:45:26.339Z,51.70
2018-06-09T13:47:55.756Z,49.37
2018-06-09T13:50:25.316Z,47.20
2018-06-09T13:52:57.601Z,43.93
2018-06-09T13:55:27.587Z,45.30
2018-06-09T13:57:57.051Z,43.30
2018-06-09T14:00:27.602Z,46.07
2018-06-09T14:02:57.644Z,44.37
2018-06-09T14:05:26.886Z,44.87
2018-06-09T14:07:56.131Z,43.93
2018-06-09T14:10:25.362Z,45.53
2018-06-09T14:22:50.943Z,47.90
2018-06-09T14:25:24.642Z,43.50
2018-06-09T14:27:54.231Z,39.97
2018-06-09T14:30:24.243Z,45.70
2018-06-09T14:32:54.194Z,42.63
2018-06-09T14:35:23.547Z,42.83
2018-06-09T14:37:52.941Z,38.60
2018-06-09T14:40:24.124Z,43.73
2018-06-09T14:42:55.035Z,45.13
2018-06-09T14:45:24.518Z,47.97
2018-06-09T14:47:53.819Z,46.33
2018-06-09T14:50:23.736Z,42.87
2018-06-09T14:52:53.344Z,39.20
2018-06-09T14:55:22.585Z,40.70
2018-06-09T14:57:52.227Z,48.07
2018-06-09T15:00:23.530Z,46.23
2018-06-09T15:02:52.912Z,51.10
2018-06-09T15:05:22.760Z,47.97
2018-06-09T15:07:53.539Z,48.53
2018-06-09T15:10:22.420Z,51.20
2018-06-09T15:12:54.748Z,47.50
2018-06-09T15:27:48.258Z,31.20
2018-06-09T15:30:27.152Z,33.17
2018-06-09T15:37:55.764Z,35.17
2018-06-09T15:42:59.534Z,31.40
2018-06-09T15:50:28.291Z,30.45
2018-06-09T15:52:59.346Z,31.55
2018-06-09T15:55:29.077Z,34.23
2018-06-09T15:58:01.083Z,30.37
2018-06-09T16:05:28.714Z,30.20
2018-06-09T16:23:28.503Z,27.50
2018-06-09T16:25:58.669Z,24.93
2018-06-09T16:28:30.989Z,25.03
2018-06-09T16:31:01.398Z,24.60
2018-06-09T16:33:36.248Z,27.87
2018-06-09T16:36:07.448Z,22.93
2018-06-09T16:38:38.962Z,27.10
2018-06-09T16:41:09.269Z,27.30
2018-06-09T16:43:38.589Z,25.40
2018-06-09T16:46:09.206Z,25.20
2018-06-09T16:48:39.740Z,26.40
2018-06-09T16:51:10.096Z,27.23
2018-06-09T16:53:39.582Z,25.17
2018-06-09T16:56:10.000Z,22.00
2018-06-09T17:11:09.326Z,25.40
2018-06-09T17:13:41.041Z,24.70
2018-06-09T17:18:41.103Z,28.30
2018-06-09T18:41:07.843Z,33.25
2018-06-09T18:43:37.092Z,31.80
2018-06-09T18:46:07.023Z,30.35
2018-06-09T18:48:38.305Z,29.50
2018-06-09T20:50:27.007Z,40.10
2018-06-09T20:55:24.818Z,35.05
2018-06-09T20:57:53.837Z,41.00
2018-06-09T21:00:22.999Z,42.30
2018-06-09T21:02:51.978Z,39.97
2018-06-09T21:05:20.665Z,31.63
2018-06-09T21:07:50.150Z,38.10
2018-06-09T21:10:20.686Z,37.45
2018-06-09T21:12:49.631Z,41.95
2018-06-09T21:15:18.828Z,36.63
2018-06-09T21:17:47.558Z,34.47
2018-06-09T21:20:16.099Z,40.55
2018-06-09T21:22:44.668Z,42.70
2018-06-09T21:25:14.204Z,47.40
2018-06-09T21:27:48.148Z,44.07
2018-06-09T21:30:16.742Z,40.73
2018-06-09T21:32:47.411Z,41.85
2018-06-09T21:35:33.607Z,43.95
2018-06-09T21:38:07.889Z,36.80
2018-06-09T21:40:41.882Z,43.15
2018-06-09T21:43:15.798Z,37.90
2018-06-09T21:45:49.920Z,48.30
2018-06-09T21:48:19.626Z,41.35
2018-06-09T21:50:48.241Z,43.40
2018-06-09T21:53:16.791Z,47.57
2018-06-09T21:55:45.378Z,41.60
2018-06-09T21:58:13.956Z,44.87
2018-06-09T22:00:42.509Z,38.50
2018-06-09T22:03:11.129Z,42.10
2018-06-09T22:05:39.654Z,39.10
2018-06-09T22:08:08.177Z,41.60
2018-06-09T22:10:36.740Z,39.70
2018-06-09T22:13:05.469Z,41.33
2018-06-09T22:15:33.931Z,37.40
2018-06-09T22:18:02.600Z,46.30
2018-06-09T22:20:31.072Z,44.23
2018-06-09T22:22:59.602Z,42.00
2018-06-09T22:26:02.110Z,48.50
2018-06-09T22:28:32.025Z,40.65
2018-06-09T22:31:02.219Z,43.73
2018-06-09T22:33:32.105Z,47.03
2018-06-09T22:36:00.669Z,46.35
2018-06-09T22:38:29.470Z,51.50
2018-06-09T22:40:58.058Z,47.47
2018-06-09T22:43:26.601Z,44.47
2018-06-09T22:45:55.242Z,46.03
2018-06-09T22:48:23.937Z,48.50
2018-06-09T22:50:52.668Z,40.80
2018-06-09T22:53:21.457Z,47.53
2018-06-09T22:55:50.075Z,46.80
2018-06-09T22:58:19.752Z,42.73
2018-06-09T23:00:49.972Z,52.00
2018-06-09T23:03:19.320Z,42.47
2018-06-09T23:05:48.559Z,48.07
2018-06-09T23:08:18.384Z,45.47
2018-06-09T23:10:47.762Z,47.40
2018-06-09T23:13:16.508Z,50.50
2018-06-09T23:15:45.201Z,59.20
2018-06-09T23:18:14.328Z,43.93
2018-06-09T23:20:42.721Z,48.35
2018-06-09T23:23:12.024Z,55.83
2018-06-09T23:25:41.004Z,44.85
2018-06-09T23:28:09.879Z,53.60
2018-06-09T23:30:38.556Z,50.20
2018-06-09T23:33:07.123Z,49.90
2018-06-09T23:35:35.714Z,55.35
2018-06-09T23:38:04.978Z,58.40
2018-06-09T23:40:34.756Z,53.80
2018-06-09T23:43:03.437Z,60.37
2018-06-09T23:45:31.756Z,55.83
2018-06-09T23:48:01.303Z,55.30
2018-06-09T23:50:30.867Z,57.55
2018-06-09T23:52:59.463Z,56.60
2018-06-09T23:55:28.114Z,57.60
2018-06-09T23:57:56.837Z,54.30
